sensor_id;sensor_type;location;lat;lon;timestamp;pressure;altitude;pressure_sealevel;temperature;humidity
46347;BME280;32057;47.830;19.046;2023-04-29T00:02:08;100145.41;;;10.08;100.00
46347;BME280;32057;47.830;19.046;2023-04-29T00:04:34;100155.06;;;10.14;100.00
46347;BME280;32057;47.830;19.046;2023-04-29T00:07:02;100159.31;;;10.09;100.00
46347;BME280;32057;47.830;19.046;2023-04-29T00:09:27;100159.22;;;10.06;100.00
46347;BME280;32057;47.830;19.046;2023-04-29T00:11:52;100154.97;;;10.09;100.00
46347;BME280;32057;47.830;19.046;2023-04-29T00:14:21;100155.75;;;10.05;100.00
46347;BME280;32057;47.830;19.046;2023-04-29T00:16:46;100153.19;;;10.07;100.00
46347;BME280;32057;47.830;19.046;2023-04-29T00:19:12;100147.88;;;10.01;100.00
46347;BME280;32057;47.830;19.046;2023-04-29T00:21:37;100153.75;;;9.92;100.00
46347;BME280;32057;47.830;19.046;2023-04-29T00:24:06;100148.56;;;9.92;100.00
46347;BME280;32057;47.830;19.046;2023-04-29T00:26:31;100148.66;;;9.96;100.00
46347;BME280;32057;47.830;19.046;2023-04-29T00:28:56;100156.53;;;10.01;100.00
46347;BME280;32057;47.830;19.046;2023-04-29T00:31:22;100147.97;;;10.05;100.00
46347;BME280;32057;47.830;19.046;2023-04-29T00:33:47;100154.97;;;10.09;100.00
46347;BME280;32057;47.830;19.046;2023-04-29T00:36:13;100156.72;;;10.10;100.00
46347;BME280;32057;47.830;19.046;2023-04-29T00:38:38;100154.06;;;10.07;100.00
46347;BME280;32057;47.830;19.046;2023-04-29T00:41:04;100153.19;;;10.07;100.00
46347;BME280;32057;47.830;19.046;2023-04-29T00:43:32;100159.25;;;10.07;100.00
46347;BME280;32057;47.830;19.046;2023-04-29T00:45:58;100159.16;;;10.01;100.00
46347;BME280;32057;47.830;19.046;2023-04-29T00:48:23;100155.69;;;10.01;100.00
46347;BME280;32057;47.830;19.046;2023-04-29T00:50:52;100155.63;;;9.99;100.00
46347;BME280;32057;47.830;19.046;2023-04-29T00:53:17;100153.81;;;9.95;100.00
46347;BME280;32057;47.830;19.046;2023-04-29T00:55:44;100152.97;;;9.94;100.00
46347;BME280;32057;47.830;19.046;2023-04-29T00:58:11;100148.63;;;9.95;100.00
46347;BME280;32057;47.830;19.046;2023-04-29T01:00:36;100154.63;;;9.92;100.00
46347;BME280;32057;47.830;19.046;2023-04-29T01:03:04;100151.16;;;9.92;100.00
46347;BME280;32057;47.830;19.046;2023-04-29T01:05:29;100151.91;;;9.86;100.00
46347;BME280;32057;47.830;19.046;2023-04-29T01:10:44;100143.97;;;9.79;100.00
46347;BME280;32057;47.830;19.046;2023-04-29T01:13:21;100147.38;;;9.76;100.00
46347;BME280;32057;47.830;19.046;2023-04-29T01:16:07;100146.38;;;9.69;100.00
46347;BME280;32057;47.830;19.046;2023-04-29T01:18:42;100148.09;;;9.69;100.00
46347;BME280;32057;47.830;19.046;2023-04-29T01:21:10;100142.03;;;9.70;100.00
46347;BME280;32057;47.830;19.046;2023-04-29T01:23:35;100144.75;;;9.76;100.00
46347;BME280;32057;47.830;19.046;2023-04-29T01:26:01;100144.09;;;9.85;100.00
46347;BME280;32057;47.830;19.046;2023-04-29T01:29:19;100142.31;;;9.84;100.00
46347;BME280;32057;47.830;19.046;2023-04-29T01:31:38;100138.75;;;9.77;100.00
46347;BME280;32057;47.830;19.046;2023-04-29T01:34:22;100138.63;;;9.72;100.00
46347;BME280;32057;47.830;19.046;2023-04-29T01:44:38;100127.53;;;9.80;100.00
46347;BME280;32057;47.830;19.046;2023-04-29T01:47:07;100131.03;;;9.82;100.00
46347;BME280;32057;47.830;19.046;2023-04-29T01:49:35;100131.09;;;9.85;100.00
46347;BME280;32057;47.830;19.046;2023-04-29T01:52:01;100132.91;;;9.89;100.00
46347;BME280;32057;47.830;19.046;2023-04-29T01:54:27;100132.00;;;9.87;100.00
46347;BME280;32057;47.830;19.046;2023-04-29T01:56:52;100129.41;;;9.87;100.00
46347;BME280;32057;47.830;19.046;2023-04-29T01:59:19;100132.00;;;9.87;100.00
46347;BME280;32057;47.830;19.046;2023-04-29T02:01:45;100136.34;;;9.88;100.00
46347;BME280;32057;47.830;19.046;2023-04-29T02:04:10;100138.91;;;9.86;100.00
46347;BME280;32057;47.830;19.046;2023-04-29T02:06:35;100134.50;;;9.82;100.00
46347;BME280;32057;47.830;19.046;2023-04-29T02:09:01;100133.59;;;9.79;100.00
46347;BME280;32057;47.830;19.046;2023-04-29T02:11:26;100127.41;;;9.73;100.00
46347;BME280;32057;47.830;19.046;2023-04-29T02:13:52;100123.94;;;9.74;100.00
46347;BME280;32057;47.830;19.046;2023-04-29T02:16:18;100130.03;;;9.75;100.00
46347;BME280;32057;47.830;19.046;2023-04-29T02:18:44;100130.09;;;9.78;100.00
46347;BME280;32057;47.830;19.046;2023-04-29T02:21:10;100131.84;;;9.79;100.00
46347;BME280;32057;47.830;19.046;2023-04-29T02:23:36;100131.81;;;9.77;100.00
46347;BME280;32057;47.830;19.046;2023-04-29T02:26:02;100126.50;;;9.71;100.00
46347;BME280;32057;47.830;19.046;2023-04-29T02:28:32;100123.84;;;9.70;100.00
46347;BME280;32057;47.830;19.046;2023-04-29T02:30:59;100116.09;;;9.71;100.00
46347;BME280;32057;47.830;19.046;2023-04-29T02:33:24;100113.47;;;9.70;100.00
46347;BME280;32057;47.830;19.046;2023-04-29T02:35:50;100109.91;;;9.66;100.00
46347;BME280;32057;47.830;19.046;2023-04-29T02:38:15;100112.50;;;9.66;100.00
46347;BME280;32057;47.830;19.046;2023-04-29T02:40:42;100112.50;;;9.66;100.00
46347;BME280;32057;47.830;19.046;2023-04-29T02:43:10;100112.59;;;9.69;100.00
46347;BME280;32057;47.830;19.046;2023-04-29T02:45:36;100115.19;;;9.69;100.00
46347;BME280;32057;47.830;19.046;2023-04-29T02:48:02;100120.47;;;9.74;100.00
46347;BME280;32057;47.830;19.046;2023-04-29T02:50:28;100114.44;;;9.75;100.00
46347;BME280;32057;47.830;19.046;2023-04-29T02:52:53;100111.81;;;9.73;100.00
46347;BME280;32057;47.830;19.046;2023-04-29T02:55:19;100118.66;;;9.70;100.00
46347;BME280;32057;47.830;19.046;2023-04-29T02:57:44;100117.00;;;9.73;100.00
46347;BME280;32057;47.830;19.046;2023-04-29T03:00:10;100119.66;;;9.75;100.00
46347;BME280;32057;47.830;19.046;2023-04-29T03:02:35;100125.63;;;9.72;100.00
46347;BME280;32057;47.830;19.046;2023-04-29T03:05:02;100127.97;;;9.60;100.00
46347;BME280;32057;47.830;19.046;2023-04-29T03:07:27;100120.06;;;9.54;100.00
46347;BME280;32057;47.830;19.046;2023-04-29T03:09:54;100125.34;;;9.57;100.00
46347;BME280;32057;47.830;19.046;2023-04-29T03:12:20;100119.34;;;9.61;100.00
46347;BME280;32057;47.830;19.046;2023-04-29T03:14:45;100115.09;;;9.65;100.00
46347;BME280;32057;47.830;19.046;2023-04-29T03:17:11;100112.50;;;9.66;100.00
46347;BME280;32057;47.830;19.046;2023-04-29T03:19:37;100102.25;;;9.71;100.00
46347;BME280;32057;47.830;19.046;2023-04-29T03:22:02;100108.25;;;9.70;100.00
46347;BME280;32057;47.830;19.046;2023-04-29T03:24:27;100105.59;;;9.65;100.00
46347;BME280;32057;47.830;19.046;2023-04-29T03:26:53;100103.81;;;9.63;100.00
46347;BME280;32057;47.830;19.046;2023-04-29T03:29:19;100111.69;;;9.67;100.00
46347;BME280;32057;47.830;19.046;2023-04-29T03:31:45;100104.72;;;9.66;100.00
46347;BME280;32057;47.830;19.046;2023-04-29T03:34:10;100109.13;;;9.69;100.00
46347;BME280;32057;47.830;19.046;2023-04-29T03:36:36;100114.34;;;9.70;100.00
46347;BME280;32057;47.830;19.046;2023-04-29T03:39:01;100120.34;;;9.68;100.00
46347;BME280;32057;47.830;19.046;2023-04-29T03:41:26;100122.13;;;9.69;100.00
46347;BME280;32057;47.830;19.046;2023-04-29T03:43:52;100123.91;;;9.71;100.00
46347;BME280;32057;47.830;19.046;2023-04-29T03:46:19;100126.63;;;9.77;100.00
46347;BME280;32057;47.830;19.046;2023-04-29T03:48:44;100128.34;;;9.77;100.00
46347;BME280;32057;47.830;19.046;2023-04-29T03:51:10;100135.22;;;9.75;100.00
46347;BME280;32057;47.830;19.046;2023-04-29T03:53:35;100130.00;;;9.73;100.00
46347;BME280;32057;47.830;19.046;2023-04-29T03:56:01;100136.09;;;9.75;100.00
46347;BME280;32057;47.830;19.046;2023-04-29T03:58:27;100138.78;;;9.79;100.00
46347;BME280;32057;47.830;19.046;2023-04-29T04:00:53;100140.50;;;9.80;100.00
46347;BME280;32057;47.830;19.046;2023-04-29T04:03:19;100149.00;;;9.72;100.00
46347;BME280;32057;47.830;19.046;2023-04-29T04:05:44;100153.31;;;9.70;100.00
46347;BME280;32057;47.830;19.046;2023-04-29T04:08:10;100146.50;;;9.75;100.00
46347;BME280;32057;47.830;19.046;2023-04-29T04:10:35;100142.94;;;9.72;100.00
46347;BME280;32057;47.830;19.046;2023-04-29T04:13:01;100142.88;;;9.67;100.00
46347;BME280;32057;47.830;19.046;2023-04-29T04:15:26;100142.78;;;9.63;100.00
46347;BME280;32057;47.830;19.046;2023-04-29T04:17:51;100144.50;;;9.64;100.00
46347;BME280;32057;47.830;19.046;2023-04-29T04:20:17;100136.72;;;9.64;100.00
46347;BME280;32057;47.830;19.046;2023-04-29T04:22:42;100147.94;;;9.61;100.00
46347;BME280;32057;47.830;19.046;2023-04-29T04:25:08;100152.28;;;9.62;100.00
46347;BME280;32057;47.830;19.046;2023-04-29T04:27:34;100155.78;;;9.63;100.00
46347;BME280;32057;47.830;19.046;2023-04-29T04:29:59;100157.47;;;9.61;100.00
46347;BME280;32057;47.830;19.046;2023-04-29T04:32:25;100162.75;;;9.65;100.00
46347;BME280;32057;47.830;19.046;2023-04-29T04:34:51;100153.25;;;9.67;100.00
46347;BME280;32057;47.830;19.046;2023-04-29T04:37:16;100153.19;;;9.64;100.00
46347;BME280;32057;47.830;19.046;2023-04-29T04:39:41;100152.31;;;9.64;100.00
46347;BME280;32057;47.830;19.046;2023-04-29T04:42:07;100146.16;;;9.60;100.00
46347;BME280;32057;47.830;19.046;2023-04-29T04:44:32;100140.91;;;9.57;100.00
46347;BME280;32057;47.830;19.046;2023-04-29T04:46:58;100140.00;;;9.55;100.00
46347;BME280;32057;47.830;19.046;2023-04-29T04:49:27;100139.91;;;9.50;100.00
46347;BME280;32057;47.830;19.046;2023-04-29T04:51:52;100139.03;;;9.50;100.00
46347;BME280;32057;47.830;19.046;2023-04-29T04:54:18;100139.13;;;9.54;100.00
46347;BME280;32057;47.830;19.046;2023-04-29T04:56:44;100144.31;;;9.54;100.00
46347;BME280;32057;47.830;19.046;2023-04-29T04:59:09;100142.63;;;9.56;100.00
46347;BME280;32057;47.830;19.046;2023-04-29T05:01:35;100144.47;;;9.62;100.00
46347;BME280;32057;47.830;19.046;2023-04-29T05:04:00;100135.78;;;9.60;100.00
46347;BME280;32057;47.830;19.046;2023-04-29T05:06:27;100143.69;;;9.65;100.00
46347;BME280;32057;47.830;19.046;2023-04-29T05:08:53;100130.78;;;9.69;100.00
46347;BME280;32057;47.830;19.046;2023-04-29T05:11:20;100128.22;;;9.72;100.00
46347;BME280;32057;47.830;19.046;2023-04-29T05:13:46;100119.56;;;9.72;100.00
46347;BME280;32057;47.830;19.046;2023-04-29T05:16:12;100125.63;;;9.72;100.00
46347;BME280;32057;47.830;19.046;2023-04-29T05:18:38;100120.50;;;9.75;100.00
46347;BME280;32057;47.830;19.046;2023-04-29T05:21:03;100124.06;;;9.79;100.00
46347;BME280;32057;47.830;19.046;2023-04-29T05:23:29;100122.38;;;9.81;100.00
46347;BME280;32057;47.830;19.046;2023-04-29T05:25:55;100121.53;;;9.84;100.00
46347;BME280;32057;47.830;19.046;2023-04-29T05:28:20;100131.09;;;9.86;100.00
46347;BME280;32057;47.830;19.046;2023-04-29T05:30:46;100133.75;;;9.88;100.00
46347;BME280;32057;47.830;19.046;2023-04-29T05:33:12;100145.78;;;9.84;100.00
46347;BME280;32057;47.830;19.046;2023-04-29T05:35:37;100150.22;;;9.88;100.00
46347;BME280;32057;47.830;19.046;2023-04-29T05:38:03;100154.38;;;9.80;100.00
46347;BME280;32057;47.830;19.046;2023-04-29T05:40:28;100154.22;;;9.72;100.00
46347;BME280;32057;47.830;19.046;2023-04-29T05:42:54;100160.28;;;9.71;100.00
46347;BME280;32057;47.830;19.046;2023-04-29T05:45:19;100167.47;;;9.85;100.00
46347;BME280;32057;47.830;19.046;2023-04-29T05:47:45;100165.00;;;9.91;100.00
46347;BME280;32057;47.830;19.046;2023-04-29T05:50:10;100166.00;;;9.97;100.00
46347;BME280;32057;47.830;19.046;2023-04-29T05:52:36;100160.00;;;10.02;100.00
46347;BME280;32057;47.830;19.046;2023-04-29T05:55:02;100163.63;;;10.10;100.00
46347;BME280;32057;47.830;19.046;2023-04-29T05:57:27;100161.06;;;10.11;100.00
46347;BME280;32057;47.830;19.046;2023-04-29T05:59:52;100149.84;;;10.14;100.00
46347;BME280;32057;47.830;19.046;2023-04-29T06:02:19;100156.75;;;10.12;100.00
46347;BME280;32057;47.830;19.046;2023-04-29T06:04:45;100145.56;;;10.14;100.00
46347;BME280;32057;47.830;19.046;2023-04-29T06:07:12;100148.13;;;10.13;100.00
46347;BME280;32057;47.830;19.046;2023-04-29T06:09:37;100154.25;;;10.16;100.00
46347;BME280;32057;47.830;19.046;2023-04-29T06:12:03;100149.09;;;10.20;100.00
46347;BME280;32057;47.830;19.046;2023-04-29T06:14:29;100156.75;;;10.12;100.00
46347;BME280;32057;47.830;19.046;2023-04-29T06:16:55;100155.94;;;10.14;100.00
46347;BME280;32057;47.830;19.046;2023-04-29T06:19:20;100158.56;;;10.14;100.00
46347;BME280;32057;47.830;19.046;2023-04-29T06:21:46;100159.47;;;10.16;100.00
46347;BME280;32057;47.830;19.046;2023-04-29T06:24:11;100153.53;;;10.25;100.00
46347;BME280;32057;47.830;19.046;2023-04-29T06:26:37;100152.94;;;10.37;100.00
46347;BME280;32057;47.830;19.046;2023-04-29T06:29:03;100160.66;;;10.34;100.00
46347;BME280;32057;47.830;19.046;2023-04-29T06:31:28;100155.47;;;10.34;100.00
46347;BME280;32057;47.830;19.046;2023-04-29T06:33:54;100158.13;;;10.37;100.00
46347;BME280;32057;47.830;19.046;2023-04-29T06:36:19;100159.00;;;10.38;100.00
46347;BME280;32057;47.830;19.046;2023-04-29T06:38:45;100169.47;;;10.41;100.00
46347;BME280;32057;47.830;19.046;2023-04-29T06:41:10;100169.47;;;10.42;100.00
46347;BME280;32057;47.830;19.046;2023-04-29T06:43:36;100171.25;;;10.43;100.00
46347;BME280;32057;47.830;19.046;2023-04-29T06:46:01;100173.63;;;10.31;100.00
46347;BME280;32057;47.830;19.046;2023-04-29T06:48:27;100169.19;;;10.28;100.00
46347;BME280;32057;47.830;19.046;2023-04-29T06:50:54;100174.53;;;10.33;100.00
46347;BME280;32057;47.830;19.046;2023-04-29T06:53:20;100171.84;;;10.30;100.00
46347;BME280;32057;47.830;19.046;2023-04-29T06:55:46;100175.44;;;10.35;100.00
46347;BME280;32057;47.830;19.046;2023-04-29T06:58:13;100178.94;;;10.37;100.00
46347;BME280;32057;47.830;19.046;2023-04-29T07:00:39;100179.03;;;10.43;100.00
46347;BME280;32057;47.830;19.046;2023-04-29T07:03:05;100183.47;;;10.47;100.00
46347;BME280;32057;47.830;19.046;2023-04-29T07:05:30;100184.44;;;10.52;100.00
46347;BME280;32057;47.830;19.046;2023-04-29T07:07:56;100182.69;;;10.53;100.00
46347;BME280;32057;47.830;19.046;2023-04-29T07:10:21;100186.16;;;10.53;100.00
46347;BME280;32057;47.830;19.046;2023-04-29T07:12:47;100198.28;;;10.51;100.00
46347;BME280;32057;47.830;19.046;2023-04-29T07:15:12;100190.47;;;10.51;100.00
46347;BME280;32057;47.830;19.046;2023-04-29T07:17:38;100189.63;;;10.52;100.00
46347;BME280;32057;47.830;19.046;2023-04-29T07:20:03;100187.06;;;10.55;100.00
46347;BME280;32057;47.830;19.046;2023-04-29T07:22:29;100179.31;;;10.57;100.00
46347;BME280;32057;47.830;19.046;2023-04-29T07:24:55;100177.66;;;10.64;100.00
46347;BME280;32057;47.830;19.046;2023-04-29T07:27:21;100160.47;;;10.72;100.00
46347;BME280;32057;47.830;19.046;2023-04-29T07:29:49;100143.38;;;10.88;100.00
46347;BME280;32057;47.830;19.046;2023-04-29T07:32:15;100141.75;;;10.94;100.00
46347;BME280;32057;47.830;19.046;2023-04-29T07:34:41;100132.56;;;11.20;100.00
46347;BME280;32057;47.830;19.046;2023-04-29T07:37:06;100152.09;;;11.49;100.00
46347;BME280;32057;47.830;19.046;2023-04-29T07:39:32;100163.75;;;11.77;100.00
46347;BME280;32057;47.830;19.046;2023-04-29T07:41:59;100167.44;;;11.90;100.00
46347;BME280;32057;47.830;19.046;2023-04-29T07:44:26;100176.13;;;11.91;100.00
46347;BME280;32057;47.830;19.046;2023-04-29T07:46:51;100178.66;;;11.86;100.00
46347;BME280;32057;47.830;19.046;2023-04-29T07:49:17;100172.47;;;11.76;98.30
46347;BME280;32057;47.830;19.046;2023-04-29T07:51:42;100178.41;;;11.68;95.97
46347;BME280;32057;47.830;19.046;2023-04-29T07:54:08;100179.28;;;11.67;96.92
46347;BME280;32057;47.830;19.046;2023-04-29T07:56:34;100180.97;;;11.63;98.13
46347;BME280;32057;47.830;19.046;2023-04-29T07:59:00;100196.66;;;11.66;98.21
46347;BME280;32057;47.830;19.046;2023-04-29T08:01:26;100193.22;;;11.70;96.99
46347;BME280;32057;47.830;19.046;2023-04-29T08:03:52;100186.31;;;11.72;98.30
46347;BME280;32057;47.830;19.046;2023-04-29T08:06:18;100200.19;;;11.71;96.06
46347;BME280;32057;47.830;19.046;2023-04-29T08:08:46;100195.81;;;11.69;99.39
46347;BME280;32057;47.830;19.046;2023-04-29T08:11:16;100193.09;;;11.61;97.59
46347;BME280;32057;47.830;19.046;2023-04-29T08:13:42;100193.03;;;11.58;100.00
46347;BME280;32057;47.830;19.046;2023-04-29T08:16:07;100192.13;;;11.53;100.00
46347;BME280;32057;47.830;19.046;2023-04-29T08:18:33;100199.88;;;11.50;100.00
46347;BME280;32057;47.830;19.046;2023-04-29T08:20:59;100199.03;;;11.51;99.66
46347;BME280;32057;47.830;19.046;2023-04-29T08:23:25;100206.78;;;11.48;98.02
46347;BME280;32057;47.830;19.046;2023-04-29T08:25:50;100208.56;;;11.49;100.00
46347;BME280;32057;47.830;19.046;2023-04-29T08:28:16;100210.28;;;11.50;99.19
46347;BME280;32057;47.830;19.046;2023-04-29T08:30:42;100198.97;;;11.46;99.11
46347;BME280;32057;47.830;19.046;2023-04-29T08:33:07;100208.50;;;11.46;100.00
46347;BME280;32057;47.830;19.046;2023-04-29T08:35:34;100210.28;;;11.47;98.69
46347;BME280;32057;47.830;19.046;2023-04-29T08:38:02;100219.81;;;11.48;100.00
46347;BME280;32057;47.830;19.046;2023-04-29T08:40:29;100213.78;;;11.49;100.00
46347;BME280;32057;47.830;19.046;2023-04-29T08:42:56;100219.00;;;11.50;99.96
46347;BME280;32057;47.830;19.046;2023-04-29T08:45:23;100217.25;;;11.49;97.56
46347;BME280;32057;47.830;19.046;2023-04-29T08:47:49;100221.63;;;11.52;100.00
46347;BME280;32057;47.830;19.046;2023-04-29T08:50:15;100219.91;;;11.52;100.00
46347;BME280;32057;47.830;19.046;2023-04-29T08:52:42;100219.00;;;11.52;94.65
46347;BME280;32057;47.830;19.046;2023-04-29T08:55:08;100215.59;;;11.54;99.83
46347;BME280;32057;47.830;19.046;2023-04-29T08:57:37;100211.28;;;11.58;99.57
46347;BME280;32057;47.830;19.046;2023-04-29T09:00:05;100214.75;;;11.57;96.18
46347;BME280;32057;47.830;19.046;2023-04-29T09:02:32;100213.88;;;11.58;97.63
46347;BME280;32057;47.830;19.046;2023-04-29T09:05:09;100211.41;;;11.64;97.23
46347;BME280;32057;47.830;19.046;2023-04-29T09:07:37;100214.03;;;11.67;93.47
46347;BME280;32057;47.830;19.046;2023-04-29T09:10:06;100215.78;;;11.70;94.22
46347;BME280;32057;47.830;19.046;2023-04-29T09:12:32;100214.97;;;11.74;93.40
46347;BME280;32057;47.830;19.046;2023-04-29T09:14:58;100219.38;;;11.76;91.13
46347;BME280;32057;47.830;19.046;2023-04-29T09:17:47;100212.53;;;11.85;92.74
46347;BME280;32057;47.830;19.046;2023-04-29T09:25:13;100204.13;;;12.06;95.28
46347;BME280;32057;47.830;19.046;2023-04-29T09:27:38;100208.53;;;12.11;89.47
46347;BME280;32057;47.830;19.046;2023-04-29T09:30:04;100205.13;;;12.17;89.06
46347;BME280;32057;47.830;19.046;2023-04-29T09:32:30;100215.63;;;12.20;89.10
46347;BME280;32057;47.830;19.046;2023-04-29T09:34:55;100215.69;;;12.28;90.35
46347;BME280;32057;47.830;19.046;2023-04-29T09:37:26;100218.34;;;12.31;88.48
46347;BME280;32057;47.830;19.046;2023-04-29T09:39:53;100214.03;;;12.34;89.09
46347;BME280;32057;47.830;19.046;2023-04-29T09:42:18;100221.03;;;12.39;87.39
46347;BME280;32057;47.830;19.046;2023-04-29T09:44:44;100208.06;;;12.45;86.55
46347;BME280;32057;47.830;19.046;2023-04-29T09:47:10;100209.00;;;12.51;84.60
46347;BME280;32057;47.830;19.046;2023-04-29T09:49:39;100211.66;;;12.54;86.45
46347;BME280;32057;47.830;19.046;2023-04-29T09:52:07;100205.63;;;12.60;85.77
46347;BME280;32057;47.830;19.046;2023-04-29T09:54:34;100206.50;;;12.64;85.16
46347;BME280;32057;47.830;19.046;2023-04-29T09:57:04;100199.56;;;12.64;85.82
46347;BME280;32057;47.830;19.046;2023-04-29T09:59:31;100206.56;;;12.70;86.29
46347;BME280;32057;47.830;19.046;2023-04-29T10:01:58;100203.13;;;12.75;85.23
46347;BME280;32057;47.830;19.046;2023-04-29T10:04:25;100204.97;;;12.84;89.85
46347;BME280;32057;47.830;19.046;2023-04-29T10:06:53;100199.81;;;12.93;90.05
46347;BME280;32057;47.830;19.046;2023-04-29T10:09:20;100192.88;;;12.95;86.90
46347;BME280;32057;47.830;19.046;2023-04-29T10:11:48;100187.72;;;13.05;83.58
46347;BME280;32057;47.830;19.046;2023-04-29T10:14:24;100182.59;;;13.17;80.76
46347;BME280;32057;47.830;19.046;2023-04-29T10:17:27;100182.81;;;13.45;95.15
46347;BME280;32057;47.830;19.046;2023-04-29T10:20:03;100185.53;;;13.63;93.68
46347;BME280;32057;47.830;19.046;2023-04-29T10:22:46;100186.50;;;13.81;88.10
46347;BME280;32057;47.830;19.046;2023-04-29T10:25:14;100178.75;;;14.02;85.67
46347;BME280;32057;47.830;19.046;2023-04-29T10:27:41;100176.16;;;14.18;78.21
46347;BME280;32057;47.830;19.046;2023-04-29T10:30:11;100169.25;;;14.35;75.70
46347;BME280;32057;47.830;19.046;2023-04-29T10:32:39;100160.56;;;14.54;79.96
46347;BME280;32057;47.830;19.046;2023-04-29T10:35:08;100151.88;;;14.76;84.85
46347;BME280;32057;47.830;19.046;2023-04-29T10:37:35;100153.63;;;14.81;76.78
46347;BME280;32057;47.830;19.046;2023-04-29T10:42:57;100149.25;;;14.83;74.38
46347;BME280;32057;47.830;19.046;2023-04-29T10:45:31;100146.63;;;14.83;77.52
46347;BME280;32057;47.830;19.046;2023-04-29T10:53:14;100132.66;;;14.69;72.76
46347;BME280;32057;47.830;19.046;2023-04-29T10:55:41;100130.94;;;14.74;78.29
46347;BME280;32057;47.830;19.046;2023-04-29T11:00:58;100125.69;;;14.72;68.23
46347;BME280;32057;47.830;19.046;2023-04-29T11:03:46;100127.44;;;14.75;74.90
46347;BME280;32057;47.830;19.046;2023-04-29T11:06:50;100126.56;;;14.85;65.46
46347;BME280;32057;47.830;19.046;2023-04-29T11:12:02;100123.94;;;14.88;70.59
46347;BME280;32057;47.830;19.046;2023-04-29T11:14:48;100115.22;;;14.92;69.37
46347;BME280;32057;47.830;19.046;2023-04-29T11:17:16;100123.06;;;14.91;74.62
46347;BME280;32057;47.830;19.046;2023-04-29T11:19:51;100115.19;;;14.89;74.56
46347;BME280;32057;47.830;19.046;2023-04-29T11:22:23;100109.09;;;14.84;66.42
46347;BME280;32057;47.830;19.046;2023-04-29T11:25:02;100112.59;;;14.88;74.10
46347;BME280;32057;47.830;19.046;2023-04-29T11:27:33;100106.47;;;14.87;77.07
46347;BME280;32057;47.830;19.046;2023-04-29T11:29:59;100105.63;;;14.84;72.35
46347;BME280;32057;47.830;19.046;2023-04-29T11:32:30;100106.47;;;14.84;68.40
46347;BME280;32057;47.830;19.046;2023-04-29T11:35:16;100106.47;;;14.84;68.58
46347;BME280;32057;47.830;19.046;2023-04-29T11:37:43;100102.97;;;14.87;66.99
46347;BME280;32057;47.830;19.046;2023-04-29T11:40:10;100108.22;;;14.88;72.56
46347;BME280;32057;47.830;19.046;2023-04-29T11:42:43;100101.25;;;14.90;76.79
46347;BME280;32057;47.830;19.046;2023-04-29T11:45:10;100102.09;;;14.97;71.40
46347;BME280;32057;47.830;19.046;2023-04-29T11:47:36;100106.47;;;14.93;75.55
46347;BME280;32057;47.830;19.046;2023-04-29T11:50:07;100104.72;;;14.86;78.46
46347;BME280;32057;47.830;19.046;2023-04-29T11:52:34;100105.59;;;14.91;79.84
46347;BME280;32057;47.830;19.046;2023-04-29T11:55:01;100102.09;;;14.91;78.16
46347;BME280;32057;47.830;19.046;2023-04-29T11:57:27;100107.34;;;14.91;71.95
46347;BME280;32057;47.830;19.046;2023-04-29T11:59:52;100099.50;;;14.92;76.22
46347;BME280;32057;47.830;19.046;2023-04-29T12:02:28;100106.44;;;15.00;72.10
46347;BME280;32057;47.830;19.046;2023-04-29T12:04:53;100104.72;;;14.97;70.52
46347;BME280;32057;47.830;19.046;2023-04-29T12:07:19;100109.97;;;15.02;80.09
46347;BME280;32057;47.830;19.046;2023-04-29T12:09:45;100097.72;;;15.10;70.92
46347;BME280;32057;47.830;19.046;2023-04-29T12:12:12;100104.69;;;15.14;71.71
46347;BME280;32057;47.830;19.046;2023-04-29T12:14:39;100102.94;;;15.22;70.29
46347;BME280;32057;47.830;19.046;2023-04-29T12:17:06;100104.66;;;15.31;69.89
46347;BME280;32057;47.830;19.046;2023-04-29T12:19:32;100101.13;;;15.46;71.78
46347;BME280;32057;47.830;19.046;2023-04-29T12:21:59;100101.97;;;15.54;69.72
46347;BME280;32057;47.830;19.046;2023-04-29T12:24:25;100095.81;;;15.64;70.54
46347;BME280;32057;47.830;19.046;2023-04-29T12:26:50;100087.03;;;15.70;65.79
46347;BME280;32057;47.830;19.046;2023-04-29T12:29:23;100082.66;;;15.80;70.26
46347;BME280;32057;47.830;19.046;2023-04-29T12:31:48;100085.22;;;15.92;73.19
46347;BME280;32057;47.830;19.046;2023-04-29T12:34:13;100086.97;;;15.87;62.97
46347;BME280;32057;47.830;19.046;2023-04-29T12:36:43;100079.94;;;15.93;70.12
46347;BME280;32057;47.830;19.046;2023-04-29T12:39:12;100071.28;;;15.82;63.73
46347;BME280;32057;47.830;19.046;2023-04-29T12:41:41;100071.19;;;15.96;65.01
46347;BME280;32057;47.830;19.046;2023-04-29T12:44:07;100068.41;;;16.21;71.62
46347;BME280;32057;47.830;19.046;2023-04-29T12:46:39;100069.13;;;16.44;71.72
46347;BME280;32057;47.830;19.046;2023-04-29T12:49:06;100062.91;;;16.53;72.89
46347;BME280;32057;47.830;19.046;2023-04-29T12:51:33;100056.94;;;16.31;63.82
46347;BME280;32057;47.830;19.046;2023-04-29T12:54:01;100050.03;;;16.24;66.91
46347;BME280;32057;47.830;19.046;2023-04-29T12:56:28;100052.44;;;16.47;69.71
46347;BME280;32057;47.830;19.046;2023-04-29T12:58:54;100044.66;;;16.36;62.24
46347;BME280;32057;47.830;19.046;2023-04-29T13:01:20;100039.31;;;16.45;68.90
46347;BME280;32057;47.830;19.046;2023-04-29T13:03:45;100033.09;;;16.57;68.52
46347;BME280;32057;47.830;19.046;2023-04-29T13:06:11;100032.06;;;16.75;65.80
46347;BME280;32057;47.830;19.046;2023-04-29T13:08:36;100041.59;;;16.88;66.37